sensor_id;sensor_type;location;lat;lon;timestamp;pressure;altitude;pressure_sealevel;temperature;humidity
71795;BME280;59641;45.188;5.712;2022-12-18T10:50:30;100526.25;;;21.97;35.48
71795;BME280;59641;45.188;5.712;2022-12-18T10:52:59;100526.78;;;20.72;31.56
71795;BME280;59641;45.188;5.712;2022-12-18T10:55:35;100526.63;;;19.29;33.34
71795;BME280;59641;45.188;5.712;2022-12-18T10:58:32;100521.56;;;17.61;36.66
71795;BME280;59641;45.188;5.712;2022-12-18T11:06:06;100530.31;;;14.19;38.93
71795;BME280;59641;45.188;5.712;2022-12-18T11:08:32;100543.44;;;13.37;39.74
71795;BME280;59641;45.188;5.712;2022-12-18T11:10:58;100536.53;;;12.62;41.35
71795;BME280;59641;45.188;5.712;2022-12-18T11:13:26;100529.09;;;12.02;42.65
71795;BME280;59641;45.188;5.712;2022-12-18T11:15:53;100524.88;;;11.51;43.48
71795;BME280;59641;45.188;5.712;2022-12-18T11:18:30;100534.09;;;11.07;43.81
71795;BME280;59641;45.188;5.712;2022-12-18T11:21:15;100518.22;;;10.63;43.68
71795;BME280;59641;45.188;5.712;2022-12-18T11:24:01;100511.38;;;10.24;44.95
71795;BME280;59641;45.188;5.712;2022-12-18T11:26:34;100511.28;;;9.96;45.12
71795;BME280;59641;45.188;5.712;2022-12-18T11:29:16;100506.22;;;9.71;45.20
71795;BME280;59641;45.188;5.712;2022-12-18T11:31:42;100501.63;;;9.50;45.76
71795;BME280;59641;45.188;5.712;2022-12-18T11:34:19;100505.03;;;9.29;46.40
71795;BME280;59641;45.188;5.712;2022-12-18T11:36:48;100507.19;;;9.11;47.75
71795;BME280;59641;45.188;5.712;2022-12-18T11:39:36;100497.50;;;8.95;46.45
71795;BME280;59641;45.188;5.712;2022-12-18T11:47:52;100488.53;;;8.42;47.58
71795;BME280;59641;45.188;5.712;2022-12-18T11:50:24;100492.59;;;8.29;49.82
71795;BME280;59641;45.188;5.712;2022-12-18T11:52:50;100491.66;;;8.22;48.23
71795;BME280;59641;45.188;5.712;2022-12-18T11:55:24;100490.53;;;8.17;50.20
71795;BME280;59641;45.188;5.712;2022-12-18T12:00:27;100479.38;;;8.13;49.17
71795;BME280;59641;45.188;5.712;2022-12-18T12:05:54;100466.41;;;7.94;51.15
71795;BME280;59641;45.188;5.712;2022-12-18T12:08:44;100465.13;;;7.89;51.29
71795;BME280;59641;45.188;5.712;2022-12-18T12:11:27;100467.59;;;7.91;50.41
71795;BME280;59641;45.188;5.712;2022-12-18T12:24:56;100447.91;;;7.92;52.13
71795;BME280;59641;45.188;5.712;2022-12-18T12:30:16;100441.22;;;7.96;53.81
71795;BME280;59641;45.188;5.712;2022-12-18T12:36:04;100440.97;;;8.06;53.81
71795;BME280;59641;45.188;5.712;2022-12-18T12:38:40;100437.59;;;8.12;54.00
71795;BME280;59641;45.188;5.712;2022-12-18T12:41:09;100437.88;;;8.17;52.79
71795;BME280;59641;45.188;5.712;2022-12-18T12:44:00;100436.03;;;8.18;54.49
71795;BME280;59641;45.188;5.712;2022-12-18T12:46:26;100437.19;;;8.23;54.13
71795;BME280;59641;45.188;5.712;2022-12-18T12:48:55;100433.31;;;8.26;54.72
71795;BME280;59641;45.188;5.712;2022-12-18T12:51:25;100425.75;;;8.29;54.80
71795;BME280;59641;45.188;5.712;2022-12-18T12:53:51;100421.88;;;8.32;54.78
71795;BME280;59641;45.188;5.712;2022-12-18T12:56:20;100423.19;;;8.36;53.69
71795;BME280;59641;45.188;5.712;2022-12-18T12:59:01;100415.00;;;8.38;53.68
71795;BME280;59641;45.188;5.712;2022-12-18T13:01:40;100419.19;;;8.40;54.34
71795;BME280;59641;45.188;5.712;2022-12-18T13:04:29;100422.53;;;8.42;54.04
71795;BME280;59641;45.188;5.712;2022-12-18T13:07:14;100414.31;;;8.44;53.82
71795;BME280;59641;45.188;5.712;2022-12-18T13:15:47;100395.03;;;8.48;54.44
71795;BME280;59641;45.188;5.712;2022-12-18T13:18:21;100405.75;;;8.48;54.13
71795;BME280;59641;45.188;5.712;2022-12-18T13:21:03;100399.19;;;8.51;54.38
71795;BME280;59641;45.188;5.712;2022-12-18T13:23:35;100400.69;;;8.53;54.81
71795;BME280;59641;45.188;5.712;2022-12-18T13:31:12;100378.94;;;8.57;52.55
71795;BME280;59641;45.188;5.712;2022-12-18T13:41:40;100367.69;;;8.61;54.21
71795;BME280;59641;45.188;5.712;2022-12-18T13:46:52;100361.13;;;8.64;54.25
71795;BME280;59641;45.188;5.712;2022-12-18T13:49:25;100370.00;;;8.64;53.84
71795;BME280;59641;45.188;5.712;2022-12-18T13:51:53;100361.97;;;8.64;54.69
71795;BME280;59641;45.188;5.712;2022-12-18T13:56:48;100372.13;;;8.69;54.25
71795;BME280;59641;45.188;5.712;2022-12-18T13:59:23;100364.91;;;8.69;54.52
71795;BME280;59641;45.188;5.712;2022-12-18T14:01:51;100363.56;;;8.73;54.86
71795;BME280;59641;45.188;5.712;2022-12-18T14:06:51;100361.97;;;8.79;55.36
71795;BME280;59641;45.188;5.712;2022-12-18T14:09:23;100366.28;;;8.80;54.98
71795;BME280;59641;45.188;5.712;2022-12-18T14:11:50;100364.28;;;8.82;55.78
71795;BME280;59641;45.188;5.712;2022-12-18T14:14:17;100364.94;;;8.84;55.70
71795;BME280;59641;45.188;5.712;2022-12-18T14:16:43;100363.72;;;8.87;55.33
71795;BME280;59641;45.188;5.712;2022-12-18T14:19:15;100371.59;;;8.88;55.27
71795;BME280;59641;45.188;5.712;2022-12-18T14:21:46;100376.75;;;8.90;55.42
71795;BME280;59641;45.188;5.712;2022-12-18T14:24:20;100370.38;;;8.91;55.13
71795;BME280;59641;45.188;5.712;2022-12-18T14:26:50;100379.22;;;8.91;54.19
71795;BME280;59641;45.188;5.712;2022-12-18T14:29:20;100382.94;;;8.90;54.21
71795;BME280;59641;45.188;5.712;2022-12-18T14:31:46;100377.09;;;8.87;55.11
71795;BME280;59641;45.188;5.712;2022-12-18T14:34:16;100370.75;;;8.88;54.55
71795;BME280;59641;45.188;5.712;2022-12-18T14:36:51;100374.25;;;8.88;54.57
71795;BME280;59641;45.188;5.712;2022-12-18T14:39:17;100370.75;;;8.88;54.98
71795;BME280;59641;45.188;5.712;2022-12-18T14:41:43;100372.22;;;8.90;55.14
71795;BME280;59641;45.188;5.712;2022-12-18T14:44:12;100373.72;;;8.93;54.85
71795;BME280;59641;45.188;5.712;2022-12-18T14:46:45;100382.56;;;8.93;55.11
71795;BME280;59641;45.188;5.712;2022-12-18T14:49:25;100372.50;;;8.95;54.96
71795;BME280;59641;45.188;5.712;2022-12-18T14:51:54;100365.31;;;8.96;54.63
71795;BME280;59641;45.188;5.712;2022-12-18T14:54:21;100368.81;;;8.96;55.19
71795;BME280;59641;45.188;5.712;2022-12-18T14:56:49;100369.00;;;8.95;55.29
71795;BME280;59641;45.188;5.712;2022-12-18T14:59:20;100367.97;;;8.96;55.94
71795;BME280;59641;45.188;5.712;2022-12-18T15:04:39;100374.97;;;8.97;55.91
71795;BME280;59641;45.188;5.712;2022-12-18T15:07:14;100382.19;;;8.96;55.68
71795;BME280;59641;45.188;5.712;2022-12-18T15:10:08;100378.69;;;8.96;55.66
71795;BME280;59641;45.188;5.712;2022-12-18T15:25:45;100379.72;;;8.95;56.08
71795;BME280;59641;45.188;5.712;2022-12-18T15:28:38;100381.53;;;8.94;56.31
71795;BME280;59641;45.188;5.712;2022-12-18T15:33:33;100384.22;;;8.94;56.78
71795;BME280;59641;45.188;5.712;2022-12-18T15:36:05;100386.06;;;8.94;56.50
71795;BME280;59641;45.188;5.712;2022-12-18T15:38:32;100382.56;;;8.93;56.55
71795;BME280;59641;45.188;5.712;2022-12-18T15:40:58;100386.28;;;8.92;56.59
71795;BME280;59641;45.188;5.712;2022-12-18T15:43:24;100392.44;;;8.93;56.81
71795;BME280;59641;45.188;5.712;2022-12-18T15:46:04;100377.59;;;8.90;56.81
71795;BME280;59641;45.188;5.712;2022-12-18T15:48:33;100385.63;;;8.90;56.76
71795;BME280;59641;45.188;5.712;2022-12-18T15:50:59;100383.94;;;8.89;57.15
71795;BME280;59641;45.188;5.712;2022-12-18T15:53:29;100383.13;;;8.89;57.22
71795;BME280;59641;45.188;5.712;2022-12-18T15:55:55;100388.63;;;8.87;57.08
71795;BME280;59641;45.188;5.712;2022-12-18T15:58:39;100386.16;;;8.86;57.11
71795;BME280;59641;45.188;5.712;2022-12-18T16:01:04;100387.00;;;8.86;57.34
71795;BME280;59641;45.188;5.712;2022-12-18T16:03:30;100391.53;;;8.86;57.54
71795;BME280;59641;45.188;5.712;2022-12-18T16:05:55;100385.13;;;8.87;57.90
71795;BME280;59641;45.188;5.712;2022-12-18T16:08:20;100384.13;;;8.88;57.84
71795;BME280;59641;45.188;5.712;2022-12-18T16:10:46;100382.66;;;8.85;57.30
71795;BME280;59641;45.188;5.712;2022-12-18T16:13:15;100375.84;;;8.83;57.10
71795;BME280;59641;45.188;5.712;2022-12-18T16:15:44;100381.19;;;8.83;57.32
71795;BME280;59641;45.188;5.712;2022-12-18T16:18:09;100381.19;;;8.83;57.16
71795;BME280;59641;45.188;5.712;2022-12-18T16:20:35;100386.72;;;8.81;56.82
71795;BME280;59641;45.188;5.712;2022-12-18T16:23:00;100385.25;;;8.79;56.97
71795;BME280;59641;45.188;5.712;2022-12-18T16:25:28;100392.63;;;8.77;57.22
71795;BME280;59641;45.188;5.712;2022-12-18T16:27:54;100400.81;;;8.75;56.68
71795;BME280;59641;45.188;5.712;2022-12-18T16:30:27;100399.53;;;8.71;56.88
71795;BME280;59641;45.188;5.712;2022-12-18T16:32:55;100406.91;;;8.69;56.99
71795;BME280;59641;45.188;5.712;2022-12-18T16:35:21;100405.88;;;8.70;57.16
71795;BME280;59641;45.188;5.712;2022-12-18T16:37:47;100409.75;;;8.67;56.84
71795;BME280;59641;45.188;5.712;2022-12-18T16:40:14;100403.75;;;8.65;57.21
71795;BME280;59641;45.188;5.712;2022-12-18T16:42:42;100401.28;;;8.64;57.06
71795;BME280;59641;45.188;5.712;2022-12-18T16:45:10;100400.41;;;8.63;57.24
71795;BME280;59641;45.188;5.712;2022-12-18T16:47:36;100399.22;;;8.66;57.21
71795;BME280;59641;45.188;5.712;2022-12-18T16:50:03;100392.41;;;8.63;57.26
71795;BME280;59641;45.188;5.712;2022-12-18T16:52:28;100397.75;;;8.63;57.00
71795;BME280;59641;45.188;5.712;2022-12-18T16:54:54;100405.78;;;8.63;57.26
71795;BME280;59641;45.188;5.712;2022-12-18T16:57:20;100403.47;;;8.60;57.27
71795;BME280;59641;45.188;5.712;2022-12-18T16:59:45;100407.34;;;8.58;57.15
71795;BME280;59641;45.188;5.712;2022-12-18T17:02:19;100410.19;;;8.56;57.18
71795;BME280;59641;45.188;5.712;2022-12-18T17:04:45;100413.88;;;8.55;57.72
71795;BME280;59641;45.188;5.712;2022-12-18T17:07:11;100409.56;;;8.54;57.74
71795;BME280;59641;45.188;5.712;2022-12-18T17:09:36;100409.56;;;8.54;57.49
71795;BME280;59641;45.188;5.712;2022-12-18T17:12:02;100405.19;;;8.53;57.88
71795;BME280;59641;45.188;5.712;2022-12-18T17:14:27;100412.22;;;8.54;57.65
71795;BME280;59641;45.188;5.712;2022-12-18T17:16:53;100423.56;;;8.56;57.91
71795;BME280;59641;45.188;5.712;2022-12-18T17:19:19;100422.56;;;8.57;58.26
71795;BME280;59641;45.188;5.712;2022-12-18T17:21:48;100415.38;;;8.58;57.95
71795;BME280;59641;45.188;5.712;2022-12-18T17:24:14;100420.06;;;8.56;57.80
71795;BME280;59641;45.188;5.712;2022-12-18T17:26:40;100415.06;;;8.52;57.94
71795;BME280;59641;45.188;5.712;2022-12-18T17:29:05;100423.28;;;8.51;58.15
71795;BME280;59641;45.188;5.712;2022-12-18T17:31:31;100428.63;;;8.51;58.21
71795;BME280;59641;45.188;5.712;2022-12-18T17:33:57;100427.81;;;8.50;58.63
71795;BME280;59641;45.188;5.712;2022-12-18T17:36:23;100447.19;;;8.52;58.60
71795;BME280;59641;45.188;5.712;2022-12-18T17:38:55;100449.03;;;8.52;58.90
71795;BME280;59641;45.188;5.712;2022-12-18T17:41:21;100445.34;;;8.53;58.86
71795;BME280;59641;45.188;5.712;2022-12-18T17:43:56;100443.31;;;8.55;58.80
71795;BME280;59641;45.188;5.712;2022-12-18T17:46:22;100447.84;;;8.55;58.61
71795;BME280;59641;45.188;5.712;2022-12-18T17:48:47;100447.63;;;8.56;59.20
71795;BME280;59641;45.188;5.712;2022-12-18T17:51:14;100453.84;;;8.57;58.94
71795;BME280;59641;45.188;5.712;2022-12-18T17:53:39;100447.63;;;8.56;58.08
71795;BME280;59641;45.188;5.712;2022-12-18T17:56:05;100447.84;;;8.55;57.98
71795;BME280;59641;45.188;5.712;2022-12-18T17:58:32;100443.69;;;8.52;57.84
71795;BME280;59641;45.188;5.712;2022-12-18T18:00:58;100437.84;;;8.48;57.94
71795;BME280;59641;45.188;5.712;2022-12-18T18:03:24;100443.41;;;8.47;58.40
71795;BME280;59641;45.188;5.712;2022-12-18T18:05:57;100455.09;;;8.46;57.89
71795;BME280;59641;45.188;5.712;2022-12-18T18:08:23;100459.78;;;8.44;57.80
71795;BME280;59641;45.188;5.712;2022-12-18T18:10:48;100469.19;;;8.40;58.04
71795;BME280;59641;45.188;5.712;2022-12-18T18:13:25;100467.47;;;8.39;58.17
71795;BME280;59641;45.188;5.712;2022-12-18T18:16:10;100458.63;;;8.38;58.46
71795;BME280;59641;45.188;5.712;2022-12-18T18:18:36;100462.13;;;8.39;58.35
71795;BME280;59641;45.188;5.712;2022-12-18T18:21:06;100462.94;;;8.39;58.76
71795;BME280;59641;45.188;5.712;2022-12-18T18:23:32;100470.00;;;8.40;57.82
71795;BME280;59641;45.188;5.712;2022-12-18T18:26:05;100468.50;;;8.38;58.22
71795;BME280;59641;45.188;5.712;2022-12-18T18:28:32;100474.84;;;8.37;58.38
71795;BME280;59641;45.188;5.712;2022-12-18T18:31:03;100476.53;;;8.38;58.21
71795;BME280;59641;45.188;5.712;2022-12-18T18:33:29;100474.00;;;8.36;58.18
71795;BME280;59641;45.188;5.712;2022-12-18T18:35:57;100475.88;;;8.36;58.22
71795;BME280;59641;45.188;5.712;2022-12-18T18:38:23;100476.69;;;8.36;58.43
71795;BME280;59641;45.188;5.712;2022-12-18T18:40:48;100466.00;;;8.36;57.81
71795;BME280;59641;45.188;5.712;2022-12-18T18:43:21;100474.00;;;8.36;58.15
71795;BME280;59641;45.188;5.712;2022-12-18T18:45:46;100482.25;;;8.35;58.20
71795;BME280;59641;45.188;5.712;2022-12-18T18:48:12;100475.22;;;8.33;58.25
71795;BME280;59641;45.188;5.712;2022-12-18T18:50:38;100477.88;;;8.33;58.19
71795;BME280;59641;45.188;5.712;2022-12-18T18:53:03;100482.78;;;8.30;57.73
71795;BME280;59641;45.188;5.712;2022-12-18T18:55:32;100481.28;;;8.27;58.21
71795;BME280;59641;45.188;5.712;2022-12-18T18:57:57;100486.78;;;8.26;58.18
71795;BME280;59641;45.188;5.712;2022-12-18T19:00:22;100481.63;;;8.24;57.84
71795;BME280;59641;45.188;5.712;2022-12-18T19:02:48;100500.03;;;8.19;58.55
71795;BME280;59641;45.188;5.712;2022-12-18T19:05:13;100502.03;;;8.17;58.74
71795;BME280;59641;45.188;5.712;2022-12-18T19:07:39;100497.53;;;8.18;58.41
71795;BME280;59641;45.188;5.712;2022-12-18T19:10:05;100497.06;;;8.14;58.58
71795;BME280;59641;45.188;5.712;2022-12-18T19:12:32;100492.06;;;8.11;58.64
71795;BME280;59641;45.188;5.712;2022-12-18T19:15:17;100500.75;;;8.13;58.72
71795;BME280;59641;45.188;5.712;2022-12-18T19:17:42;100500.09;;;8.11;58.41
71795;BME280;59641;45.188;5.712;2022-12-18T19:20:08;100495.56;;;8.11;58.86
71795;BME280;59641;45.188;5.712;2022-12-18T19:22:34;100499.28;;;8.10;58.92
71795;BME280;59641;45.188;5.712;2022-12-18T19:24:59;100489.56;;;8.09;59.01
71795;BME280;59641;45.188;5.712;2022-12-18T19:27:25;100493.06;;;8.10;59.12
71795;BME280;59641;45.188;5.712;2022-12-18T19:29:50;100503.59;;;8.11;59.44
71795;BME280;59641;45.188;5.712;2022-12-18T19:32:15;100489.03;;;8.14;59.43
71795;BME280;59641;45.188;5.712;2022-12-18T19:34:41;100493.38;;;8.15;58.68
71795;BME280;59641;45.188;5.712;2022-12-18T19:37:06;100475.00;;;8.12;59.06
71795;BME280;59641;45.188;5.712;2022-12-18T19:39:32;100482.38;;;8.10;59.16
71795;BME280;59641;45.188;5.712;2022-12-18T19:41:57;100482.88;;;8.14;59.37
71795;BME280;59641;45.188;5.712;2022-12-18T19:44:22;100478.19;;;8.16;59.33
71795;BME280;59641;45.188;5.712;2022-12-18T19:46:51;100482.50;;;8.17;58.84
71795;BME280;59641;45.188;5.712;2022-12-18T19:49:16;100475.66;;;8.14;58.96
71795;BME280;59641;45.188;5.712;2022-12-18T19:51:42;100473.81;;;8.15;59.23
71795;BME280;59641;45.188;5.712;2022-12-18T19:54:11;100478.19;;;8.16;58.68
71795;BME280;59641;45.188;5.712;2022-12-18T19:56:36;100475.66;;;8.14;59.19
71795;BME280;59641;45.188;5.712;2022-12-18T19:59:03;100478.50;;;8.13;59.25
71795;BME280;59641;45.188;5.712;2022-12-18T20:01:29;100484.53;;;8.15;59.35
71795;BME280;59641;45.188;5.712;2022-12-18T20:03:55;100488.03;;;8.15;59.00
71795;BME280;59641;45.188;5.712;2022-12-18T20:06:30;100483.53;;;8.16;58.99
71795;BME280;59641;45.188;5.712;2022-12-18T20:08:58;100483.84;;;8.13;58.87
71795;BME280;59641;45.188;5.712;2022-12-18T20:11:24;100478.50;;;8.13;58.97
71795;BME280;59641;45.188;5.712;2022-12-18T20:13:50;100473.38;;;8.11;57.97
71795;BME280;59641;45.188;5.712;2022-12-18T20:16:15;100473.22;;;8.04;58.78
71795;BME280;59641;45.188;5.712;2022-12-18T20:18:40;100477.09;;;8.02;58.90
71795;BME280;59641;45.188;5.712;2022-12-18T20:21:06;100476.25;;;8.01;59.44
71795;BME280;59641;45.188;5.712;2022-12-18T20:23:31;100478.75;;;8.03;59.54
71795;BME280;59641;45.188;5.712;2022-12-18T20:25:57;100475.53;;;8.07;59.90
71795;BME280;59641;45.188;5.712;2022-12-18T20:28:23;100474.03;;;8.13;59.67
71795;BME280;59641;45.188;5.712;2022-12-18T20:30:49;100467.47;;;8.16;59.74
71795;BME280;59641;45.188;5.712;2022-12-18T20:33:14;100464.28;;;8.20;60.07
71795;BME280;59641;45.188;5.712;2022-12-18T20:35:40;100468.44;;;8.23;59.86
71795;BME280;59641;45.188;5.712;2022-12-18T20:38:05;100472.59;;;8.25;59.68
71795;BME280;59641;45.188;5.712;2022-12-18T20:40:31;100469.72;;;8.27;59.67
71795;BME280;59641;45.188;5.712;2022-12-18T20:42:57;100473.06;;;8.29;59.68
71795;BME280;59641;45.188;5.712;2022-12-18T20:45:22;100450.69;;;8.30;59.58
71795;BME280;59641;45.188;5.712;2022-12-18T20:47:47;100445.34;;;8.30;59.55
71795;BME280;59641;45.188;5.712;2022-12-18T20:50:13;100450.47;;;8.31;59.41
71795;BME280;59641;45.188;5.712;2022-12-18T20:52:38;100453.97;;;8.32;59.57
71795;BME280;59641;45.188;5.712;2022-12-18T20:55:05;100457.50;;;8.32;59.82
71795;BME280;59641;45.188;5.712;2022-12-18T20:57:30;100448.47;;;8.33;59.67
71795;BME280;59641;45.188;5.712;2022-12-18T20:59:56;100443.13;;;8.33;59.57
71795;BME280;59641;45.188;5.712;2022-12-18T21:02:21;100441.25;;;8.34;59.52
71795;BME280;59641;45.188;5.712;2022-12-18T21:04:47;100447.63;;;8.33;59.63
71795;BME280;59641;45.188;5.712;2022-12-18T21:07:12;100432.41;;;8.33;59.54
71795;BME280;59641;45.188;5.712;2022-12-18T21:09:38;100434.09;;;8.35;59.55
71795;BME280;59641;45.188;5.712;2022-12-18T21:12:04;100426.06;;;8.35;59.66
71795;BME280;59641;45.188;5.712;2022-12-18T21:14:48;100440.44;;;8.33;59.09
71795;BME280;59641;45.188;5.712;2022-12-18T21:17:13;100402.53;;;8.30;58.65
71795;BME280;59641;45.188;5.712;2022-12-18T21:19:39;100428.50;;;8.21;58.82
71795;BME280;59641;45.188;5.712;2022-12-18T21:22:04;100419.38;;;8.16;59.13
71795;BME280;59641;45.188;5.712;2022-12-18T21:24:29;100406.34;;;8.13;58.14
71795;BME280;59641;45.188;5.712;2022-12-18T21:26:55;100404.91;;;8.02;58.43
71795;BME280;59641;45.188;5.712;2022-12-18T21:29:24;100408.47;;;7.94;58.85
71795;BME280;59641;45.188;5.712;2022-12-18T21:31:52;100397.97;;;7.93;59.13
71795;BME280;59641;45.188;5.712;2022-12-18T21:34:26;100381.75;;;7.94;58.37
71795;BME280;59641;45.188;5.712;2022-12-18T21:36:53;100387.25;;;7.93;58.91
71795;BME280;59641;45.188;5.712;2022-12-18T21:39:19;100403.31;;;7.93;59.08
71795;BME280;59641;45.188;5.712;2022-12-18T21:41:45;100399.16;;;7.90;58.90
71795;BME280;59641;45.188;5.712;2022-12-18T21:44:29;100390.97;;;7.92;59.55
71795;BME280;59641;45.188;5.712;2022-12-18T21:46:55;100401.28;;;7.95;59.61
71795;BME280;59641;45.188;5.712;2022-12-18T21:49:21;100404.25;;;8.00;59.59
71795;BME280;59641;45.188;5.712;2022-12-18T21:51:48;100426.47;;;8.00;58.93
71795;BME280;59641;45.188;5.712;2022-12-18T21:54:14;100415.59;;;8.02;59.31
71795;BME280;59641;45.188;5.712;2022-12-18T21:59:21;100437.97;;;8.01;59.34
71795;BME280;59641;45.188;5.712;2022-12-18T22:01:48;100424.44;;;8.02;59.54
71795;BME280;59641;45.188;5.712;2022-12-18T22:04:14;100433.28;;;8.03;58.99
71795;BME280;59641;45.188;5.712;2022-12-18T22:06:40;100417.47;;;8.01;58.69
71795;BME280;59641;45.188;5.712;2022-12-18T22:09:08;100416.97;;;7.98;59.29
71795;BME280;59641;45.188;5.712;2022-12-18T22:11:34;100422.16;;;7.99;59.56
71795;BME280;59641;45.188;5.712;2022-12-18T22:13:59;100428.97;;;8.02;58.99
71795;BME280;59641;45.188;5.712;2022-12-18T22:16:25;100412.28;;;8.00;59.10
71795;BME280;59641;45.188;5.712;2022-12-18T22:18:50;100423.13;;;7.98;59.14
71795;BME280;59641;45.188;5.712;2022-12-18T22:21:24;100414.78;;;8.01;58.55
71795;BME280;59641;45.188;5.712;2022-12-18T22:24:00;100423.63;;;8.02;59.19
71795;BME280;59641;45.188;5.712;2022-12-18T22:26:28;100435.16;;;8.02;58.96
71795;BME280;59641;45.188;5.712;2022-12-18T22:28:53;100408.91;;;8.06;57.88
71795;BME280;59641;45.188;5.712;2022-12-18T22:31:38;100437.69;;;7.96;58.40
71795;BME280;59641;45.188;5.712;2022-12-18T22:34:04;100418.88;;;7.89;59.01
71795;BME280;59641;45.188;5.712;2022-12-18T22:36:44;100410.00;;;7.88;58.70
71795;BME280;59641;45.188;5.712;2022-12-18T22:39:12;100423.88;;;7.84;58.46
71795;BME280;59641;45.188;5.712;2022-12-18T22:41:38;100415.72;;;7.85;58.17
71795;BME280;59641;45.188;5.712;2022-12-18T22:44:03;100423.59;;;7.79;59.05
71795;BME280;59641;45.188;5.712;2022-12-18T22:46:32;100419.94;;;7.80;59.74
71795;BME280;59641;45.188;5.712;2022-12-18T22:48:58;100425.72;;;7.83;59.46
71795;BME280;59641;45.188;5.712;2022-12-18T22:51:23;100428.72;;;7.88;59.68
71795;BME280;59641;45.188;5.712;2022-12-18T22:53:48;100432.53;;;7.94;58.58
71795;BME280;59641;45.188;5.712;2022-12-18T22:56:14;100418.16;;;7.95;58.61
71795;BME280;59641;45.188;5.712;2022-12-18T22:58:40;100431.69;;;7.94;58.88
71795;BME280;59641;45.188;5.712;2022-12-18T23:01:05;100420.16;;;7.93;59.12
71795;BME280;59641;45.188;5.712;2022-12-18T23:03:34;100427.19;;;7.94;58.42
71795;BME280;59641;45.188;5.712;2022-12-18T23:06:05;100440.88;;;7.91;59.22
71795;BME280;59641;45.188;5.712;2022-12-18T23:08:31;100417.50;;;7.93;59.13
71795;BME280;59641;45.188;5.712;2022-12-18T23:10:57;100412.97;;;7.94;59.15
71795;BME280;59641;45.188;5.712;2022-12-18T23:13:22;100418.97;;;7.96;59.21
71795;BME280;59641;45.188;5.712;2022-12-18T23:15:48;100423.13;;;7.98;59.38
71795;BME280;59641;45.188;5.712;2022-12-18T23:18:13;100429.63;;;8.04;59.19
71795;BME280;59641;45.188;5.712;2022-12-18T23:20:38;100447.16;;;8.06;59.35
71795;BME280;59641;45.188;5.712;2022-12-18T23:23:04;100421.75;;;8.10;58.90
71795;BME280;59641;45.188;5.712;2022-12-18T23:25:29;100433.59;;;8.08;58.94
71795;BME280;59641;45.188;5.712;2022-12-18T23:27:54;100412.41;;;8.06;58.83
71795;BME280;59641;45.188;5.712;2022-12-18T23:30:20;100437.66;;;8.04;58.58
71795;BME280;59641;45.188;5.712;2022-12-18T23:32:45;100438.66;;;8.03;59.06
71795;BME280;59641;45.188;5.712;2022-12-18T23:35:10;100440.97;;;8.06;59.26
71795;BME280;59641;45.188;5.712;2022-12-18T23:37:36;100443.13;;;8.10;59.54
71795;BME280;59641;45.188;5.712;2022-12-18T23:40:02;100438.06;;;8.16;59.41
71795;BME280;59641;45.188;5.712;2022-12-18T23:42:27;100437.72;;;8.19;58.55
71795;BME280;59641;45.188;5.712;2022-12-18T23:44:52;100420.19;;;8.16;58.77
71795;BME280;59641;45.188;5.712;2022-12-18T23:47:18;100425.69;;;8.15;58.83
71795;BME280;59641;45.188;5.712;2022-12-18T23:49:43;100419.00;;;8.19;58.18
71795;BME280;59641;45.188;5.712;2022-12-18T23:52:09;100415.00;;;8.15;58.66
71795;BME280;59641;45.188;5.712;2022-12-18T23:54:34;100421.19;;;8.15;58.59
71795;BME280;59641;45.188;5.712;2022-12-18T23:57:00;100423.84;;;8.15;58.93
71795;BME280;59641;45.188;5.712;2022-12-18T23:59:25;100427.56;;;8.14;58.45
